Time;durP1;ratioP1;P1;durP2;ratioP2;P2;SDS_P1;SDS_P2;PMS_P1;PMS_P2;Temp;Humidity;BMP_temperature;BMP_pressure;BME280_temperature;BME280_humidity;BME280_pressure;Samples;Min_cycle;Max_cycle;Signal;HPM_P1;HPM_P2
2022/02/14 00:20:09;;;;;;;3.58;3.00;;;;;;;;;;5159288;27;20296;-65
2022/02/14 00:22:35;;;;;;;3.10;2.58;;;;;;;;;;5178475;27;20519;-65
2022/02/14 00:25:02;;;;;;;3.95;2.75;;;;;;;;;;5178639;27;20089;-70
2022/02/14 00:27:28;;;;;;;3.83;3.00;;;;;;;;;;5179580;27;20066;-67
2022/02/14 00:29:54;;;;;;;4.40;2.80;;;;;;;;;;5179410;27;20065;-67
2022/02/14 00:32:21;;;;;;;5.32;3.47;;;;;;;;;;5179340;27;20094;-67
2022/02/14 00:34:47;;;;;;;5.78;4.28;;;;;;;;;;5179412;27;20070;-67
2022/02/14 00:37:13;;;;;;;6.18;4.43;;;;;;;;;;5179320;27;20183;-66
2022/02/14 00:39:40;;;;;;;7.87;5.35;;;;;;;;;;5160518;27;20073;-67
2022/02/14 00:42:07;;;;;;;6.50;3.92;;;;;;;;;;5179348;27;20539;-65
2022/02/14 00:44:33;;;;;;;4.53;3.37;;;;;;;;;;5179240;27;20093;-66
2022/02/14 00:46:59;;;;;;;4.25;2.90;;;;;;;;;;5160112;27;20085;-67
2022/02/14 00:49:25;;;;;;;5.53;2.75;;;;;;;;;;5179409;27;20191;-67
2022/02/14 00:51:51;;;;;;;5.00;3.33;;;;;;;;;;5179174;27;20430;-67
2022/02/14 00:54:17;;;;;;;3.85;2.70;;;;;;;;;;5179362;27;20086;-65
2022/02/14 00:56:43;;;;;;;4.93;3.45;;;;;;;;;;5179119;27;20186;-65
2022/02/14 00:59:09;;;;;;;4.85;3.10;;;;;;;;;;5179373;27;20117;-66
2022/02/14 01:01:35;;;;;;;4.35;2.97;;;;;;;;;;5178954;27;20113;-66
2022/02/14 01:04:01;;;;;;;3.75;2.70;;;;;;;;;;5179287;27;20101;-66
2022/02/14 01:06:27;;;;;;;3.75;2.97;;;;;;;;;;5160322;27;20590;-66
2022/02/14 01:08:54;;;;;;;5.47;3.25;;;;;;;;;;5142652;27;20069;-67
2022/02/14 01:11:21;;;;;;;5.35;3.70;;;;;;;;;;5179272;27;20083;-67
2022/02/14 01:13:47;;;;;;;5.90;3.30;;;;;;;;;;5179267;27;20085;-67
2022/02/14 01:16:13;;;;;;;8.70;3.58;;;;;;;;;;5179087;27;20078;-67
2022/02/14 01:18:39;;;;;;;4.22;3.25;;;;;;;;;;5179246;27;20102;-68
2022/02/14 01:21:05;;;;;;;5.68;3.30;;;;;;;;;;5159827;27;20083;-66
2022/02/14 01:23:31;;;;;;;3.40;3.00;;;;;;;;;;5143046;27;20188;-67
2022/02/14 01:25:57;;;;;;;4.57;2.90;;;;;;;;;;5179353;27;20421;-69
2022/02/14 01:28:23;;;;;;;2.95;2.50;;;;;;;;;;5160448;27;20101;-70
2022/02/14 01:30:50;;;;;;;3.30;2.70;;;;;;;;;;5179501;27;20613;-68
2022/02/14 01:33:16;;;;;;;3.65;2.80;;;;;;;;;;5142842;27;20086;-70
2022/02/14 01:35:42;;;;;;;4.22;3.00;;;;;;;;;;5179888;27;20508;-70
2022/02/14 01:38:09;;;;;;;3.45;2.62;;;;;;;;;;5161532;27;20081;-70
2022/02/14 01:40:35;;;;;;;4.00;3.20;;;;;;;;;;5180548;27;20094;-69
2022/02/14 01:43:01;;;;;;;6.12;3.08;;;;;;;;;;5180338;27;20105;-70
2022/02/14 01:45:27;;;;;;;4.07;2.90;;;;;;;;;;5180472;27;20169;-70
2022/02/14 01:47:53;;;;;;;3.47;2.60;;;;;;;;;;5180445;27;20070;-70
2022/02/14 01:50:19;;;;;;;5.50;3.08;;;;;;;;;;5180265;27;20074;-70
2022/02/14 01:52:46;;;;;;;3.10;2.75;;;;;;;;;;5180533;27;20105;-70
2022/02/14 01:55:14;;;;;;;5.12;2.95;;;;;;;;;;5180587;27;20070;-70
2022/02/14 01:57:40;;;;;;;4.82;3.12;;;;;;;;;;5161236;27;20101;-69
2022/02/14 02:00:09;;;;;;;5.12;3.28;;;;;;;;;;5180361;27;20086;-70
2022/02/14 02:02:35;;;;;;;4.68;2.90;;;;;;;;;;5180300;27;20532;-69
2022/02/14 02:05:02;;;;;;;5.70;3.50;;;;;;;;;;5161106;27;20178;-69
2022/02/14 02:07:28;;;;;;;4.55;3.10;;;;;;;;;;5161086;27;20175;-69
2022/02/14 02:09:54;;;;;;;5.82;3.25;;;;;;;;;;5180199;27;20164;-69
2022/02/14 02:12:24;;;;;;;5.18;2.80;;;;;;;;;;5161136;27;20176;-68
2022/02/14 02:14:54;;;;;;;6.30;3.37;;;;;;;;;;5180148;27;20076;-69
2022/02/14 02:17:30;;;;;;;5.95;3.75;;;;;;;;;;5161081;27;20532;-69
2022/02/14 02:19:57;;;;;;;5.78;3.53;;;;;;;;;;5161143;27;20125;-69
2022/02/14 02:22:23;;;;;;;6.57;3.65;;;;;;;;;;5180542;27;20177;-69
2022/02/14 02:24:50;;;;;;;8.88;3.28;;;;;;;;;;5179978;27;20076;-68
2022/02/14 02:27:17;;;;;;;5.03;2.95;;;;;;;;;;5180057;27;20489;-69
2022/02/14 02:29:43;;;;;;;6.40;3.53;;;;;;;;;;5180146;27;20508;-68
2022/02/14 02:32:10;;;;;;;5.90;3.30;;;;;;;;;;5161024;27;20070;-68
2022/02/14 02:34:40;;;;;;;13.45;3.78;;;;;;;;;;5179991;27;20081;-68
2022/02/14 02:37:08;;;;;;;4.62;3.28;;;;;;;;;;5161309;27;20134;-68
2022/02/14 02:39:35;;;;;;;5.90;3.40;;;;;;;;;;5161315;27;20172;-68
2022/02/14 02:42:04;;;;;;;7.87;4.00;;;;;;;;;;5180058;27;20145;-68
2022/02/14 02:44:34;;;;;;;8.10;3.78;;;;;;;;;;5161370;27;20102;-70
2022/02/14 02:47:00;;;;;;;6.93;3.33;;;;;;;;;;5180069;27;20161;-70
2022/02/14 02:49:27;;;;;;;6.65;3.47;;;;;;;;;;5160881;27;20116;-69
2022/02/14 02:51:53;;;;;;;22.30;9.82;;;;;;;;;;5179712;27;20095;-69
2022/02/14 02:54:20;;;;;;;7.28;4.55;;;;;;;;;;5179942;27;20496;-69
2022/02/14 02:56:48;;;;;;;6.60;3.78;;;;;;;;;;5143334;27;20094;-68
2022/02/14 02:59:14;;;;;;;8.02;4.03;;;;;;;;;;5161140;27;20235;-70
2022/02/14 03:01:41;;;;;;;6.57;3.60;;;;;;;;;;5160549;27;20078;-69
2022/02/14 03:04:09;;;;;;;8.98;4.15;;;;;;;;;;5143306;27;20162;-68
2022/02/14 03:06:35;;;;;;;9.40;4.25;;;;;;;;;;5180028;27;20077;-73
2022/02/14 03:09:01;;;;;;;6.03;4.10;;;;;;;;;;5160945;27;20105;-70
2022/02/14 03:11:27;;;;;;;11.00;4.28;;;;;;;;;;5160542;27;20065;-69
2022/02/14 03:13:54;;;;;;;7.53;3.97;;;;;;;;;;5180055;27;20078;-73
2022/02/14 03:16:20;;;;;;;6.10;4.37;;;;;;;;;;5179585;27;20170;-73
2022/02/14 03:18:47;;;;;;;9.98;5.35;;;;;;;;;;5161036;27;20150;-72
2022/02/14 03:21:13;;;;;;;10.75;4.97;;;;;;;;;;5160975;27;20082;-78
2022/02/14 03:23:40;;;;;;;7.03;4.43;;;;;;;;;;5143366;27;20094;-67
2022/02/14 03:26:06;;;;;;;5.55;4.10;;;;;;;;;;5160826;27;20074;-67
2022/02/14 03:28:32;;;;;;;6.85;3.80;;;;;;;;;;5160685;27;20155;-68
2022/02/14 03:30:59;;;;;;;6.87;4.18;;;;;;;;;;5179698;27;20074;-68
2022/02/14 03:33:25;;;;;;;7.10;4.50;;;;;;;;;;5161077;27;20156;-66
2022/02/14 03:35:51;;;;;;;9.40;4.20;;;;;;;;;;5179786;27;20077;-64
2022/02/14 03:38:18;;;;;;;7.40;4.32;;;;;;;;;;5160914;27;20073;-66
2022/02/14 03:40:44;;;;;;;7.90;4.10;;;;;;;;;;5160679;27;20066;-67
2022/02/14 03:43:10;;;;;;;6.03;4.05;;;;;;;;;;5179773;27;20089;-66
2022/02/14 03:45:38;;;;;;;7.70;4.93;;;;;;;;;;5160620;27;20188;-67
2022/02/14 03:48:04;;;;;;;5.93;4.60;;;;;;;;;;5179960;27;20061;-67
2022/02/14 03:50:31;;;;;;;6.47;4.05;;;;;;;;;;5160867;27;20094;-71
2022/02/14 03:52:57;;;;;;;5.40;3.85;;;;;;;;;;5160887;27;20080;-67
2022/02/14 03:55:23;;;;;;;4.90;3.75;;;;;;;;;;5142988;27;20090;-64
2022/02/14 03:57:50;;;;;;;9.70;4.25;;;;;;;;;;5160285;27;20126;-63
2022/02/14 04:00:17;;;;;;;5.07;3.50;;;;;;;;;;5158940;27;20109;-64
2022/02/14 04:02:44;;;;;;;7.05;3.53;;;;;;;;;;5177924;27;20130;-63
2022/02/14 04:05:11;;;;;;;4.93;3.90;;;;;;;;;;5178179;27;20493;-62
2022/02/14 04:07:37;;;;;;;5.18;3.47;;;;;;;;;;5178614;27;20093;-64
2022/02/14 04:10:05;;;;;;;4.28;3.03;;;;;;;;;;5178365;27;20082;-63
2022/02/14 04:12:31;;;;;;;5.28;3.62;;;;;;;;;;5179048;27;20519;-63
2022/02/14 04:14:57;;;;;;;5.32;3.05;;;;;;;;;;5179180;27;20112;-64
2022/02/14 04:17:24;;;;;;;3.85;2.90;;;;;;;;;;5143080;27;20085;-63
2022/02/14 04:19:50;;;;;;;3.45;2.58;;;;;;;;;;5179319;27;20077;-64
2022/02/14 04:22:16;;;;;;;3.78;3.10;;;;;;;;;;5179000;27;20076;-63
2022/02/14 04:24:42;;;;;;;3.78;2.97;;;;;;;;;;5178988;27;20066;-64
2022/02/14 04:27:09;;;;;;;7.45;4.28;;;;;;;;;;5179230;27;20066;-64
2022/02/14 04:29:35;;;;;;;7.03;4.65;;;;;;;;;;5179072;27;20158;-64
2022/02/14 04:32:01;;;;;;;6.30;4.85;;;;;;;;;;5178961;27;20066;-64
2022/02/14 04:34:27;;;;;;;6.47;5.43;;;;;;;;;;5177436;27;20078;-64
2022/02/14 04:36:53;;;;;;;8.02;4.93;;;;;;;;;;5179080;27;20153;-64
2022/02/14 04:39:19;;;;;;;4.68;4.03;;;;;;;;;;5179186;27;20154;-64
2022/02/14 04:41:45;;;;;;;4.75;3.33;;;;;;;;;;5178857;27;20066;-64
2022/02/14 04:44:12;;;;;;;5.95;4.20;;;;;;;;;;5160287;27;20073;-63
2022/02/14 04:46:38;;;;;;;3.90;3.37;;;;;;;;;;5178865;27;20070;-62
2022/02/14 04:49:06;;;;;;;4.75;3.50;;;;;;;;;;5179363;27;20062;-64
2022/02/14 04:51:33;;;;;;;4.80;3.25;;;;;;;;;;5160233;27;20074;-64
2022/02/14 04:54:01;;;;;;;3.58;3.10;;;;;;;;;;5160329;27;20089;-64
2022/02/14 04:56:28;;;;;;;4.75;3.15;;;;;;;;;;5142762;27;20086;-65
2022/02/14 04:58:55;;;;;;;4.00;2.60;;;;;;;;;;5160426;27;20093;-64
2022/02/14 05:01:21;;;;;;;4.10;3.15;;;;;;;;;;5159786;27;20509;-61
2022/02/14 05:03:47;;;;;;;3.70;2.60;;;;;;;;;;5159877;27;20094;-62
2022/02/14 05:06:13;;;;;;;4.00;2.83;;;;;;;;;;5179075;27;20096;-61
2022/02/14 05:08:40;;;;;;;4.32;2.80;;;;;;;;;;5179179;27;20058;-63
2022/02/14 05:11:06;;;;;;;4.40;3.00;;;;;;;;;;5179767;27;20082;-63
2022/02/14 05:13:32;;;;;;;5.65;2.75;;;;;;;;;;5161514;27;20498;-63
2022/02/14 05:15:59;;;;;;;5.03;3.10;;;;;;;;;;5180657;27;20079;-61
2022/02/14 05:18:25;;;;;;;4.55;2.60;;;;;;;;;;5161483;27;20199;-63
2022/02/14 05:20:51;;;;;;;3.97;2.67;;;;;;;;;;5161453;27;20086;-64
2022/02/14 05:23:17;;;;;;;4.80;2.87;;;;;;;;;;5161458;27;20171;-63
2022/02/14 05:25:43;;;;;;;4.00;2.55;;;;;;;;;;5180481;27;20093;-64
2022/02/14 05:28:10;;;;;;;3.25;2.53;;;;;;;;;;5180704;27;20528;-64
2022/02/14 05:30:37;;;;;;;3.80;2.62;;;;;;;;;;5180379;27;20089;-62
2022/02/14 05:33:04;;;;;;;3.92;2.60;;;;;;;;;;5180553;27;20069;-63
2022/02/14 05:35:30;;;;;;;3.87;2.70;;;;;;;;;;5180454;27;20113;-62
2022/02/14 05:37:57;;;;;;;3.53;2.50;;;;;;;;;;5144237;27;20105;-63
2022/02/14 05:40:23;;;;;;;3.70;2.55;;;;;;;;;;5161218;27;20076;-64
2022/02/14 05:42:49;;;;;;;3.70;2.62;;;;;;;;;;5180443;27;20090;-64
2022/02/14 05:45:15;;;;;;;3.92;2.78;;;;;;;;;;5180681;27;20082;-63
2022/02/14 05:47:41;;;;;;;3.58;2.50;;;;;;;;;;5180409;27;20155;-63
2022/02/14 05:50:08;;;;;;;3.83;2.90;;;;;;;;;;5161176;27;20097;-64
2022/02/14 05:52:35;;;;;;;6.05;3.33;;;;;;;;;;5161550;27;20228;-63
2022/02/14 05:55:03;;;;;;;2.92;2.47;;;;;;;;;;5180212;27;20492;-64
2022/02/14 05:57:29;;;;;;;3.30;2.50;;;;;;;;;;5180434;27;20085;-64
2022/02/14 05:59:55;;;;;;;3.10;2.35;;;;;;;;;;5180332;27;20092;-63
2022/02/14 06:02:21;;;;;;;4.50;2.97;;;;;;;;;;5161627;27;20086;-63
2022/02/14 06:04:47;;;;;;;4.15;2.62;;;;;;;;;;5161077;27;20563;-63
2022/02/14 06:07:13;;;;;;;3.55;2.60;;;;;;;;;;5180344;27;20066;-64
2022/02/14 06:09:39;;;;;;;4.55;2.83;;;;;;;;;;5180194;27;20070;-63
2022/02/14 06:12:05;;;;;;;4.20;2.60;;;;;;;;;;5180281;27;20508;-63
2022/02/14 06:14:32;;;;;;;3.80;2.78;;;;;;;;;;5180213;27;20489;-64
2022/02/14 06:16:58;;;;;;;4.28;2.42;;;;;;;;;;5180199;27;20573;-63
2022/02/14 06:19:24;;;;;;;3.05;2.22;;;;;;;;;;5180163;27;20062;-64
2022/02/14 06:21:50;;;;;;;3.87;2.85;;;;;;;;;;5179959;27;20094;-64
2022/02/14 06:24:17;;;;;;;2.97;2.30;;;;;;;;;;5179810;27;20070;-61
2022/02/14 06:26:43;;;;;;;3.08;1.98;;;;;;;;;;5161244;27;20090;-63
2022/02/14 06:29:09;;;;;;;3.10;2.10;;;;;;;;;;5180209;27;20105;-64
2022/02/14 06:31:36;;;;;;;3.03;2.22;;;;;;;;;;5179921;27;20094;-64
2022/02/14 06:34:02;;;;;;;3.75;2.40;;;;;;;;;;5180143;27;20171;-64
2022/02/14 06:36:28;;;;;;;4.00;2.53;;;;;;;;;;5161059;27;20090;-64
2022/02/14 06:38:56;;;;;;;3.92;2.42;;;;;;;;;;5180169;27;20082;-64
2022/02/14 06:41:23;;;;;;;3.60;2.40;;;;;;;;;;5180034;27;20115;-63
2022/02/14 06:43:50;;;;;;;3.67;2.15;;;;;;;;;;5179927;27;20500;-63
2022/02/14 06:46:16;;;;;;;5.10;2.67;;;;;;;;;;5179944;27;20175;-67
2022/02/14 06:48:42;;;;;;;5.30;2.20;;;;;;;;;;5180061;27;20109;-67
2022/02/14 06:51:09;;;;;;;2.60;2.28;;;;;;;;;;5180206;27;20074;-69
2022/02/14 06:53:35;;;;;;;2.65;2.30;;;;;;;;;;5179981;27;20185;-68
2022/02/14 06:56:05;;;;;;;3.42;2.20;;;;;;;;;;5180422;27;20089;-68
2022/02/14 06:58:36;;;;;;;4.28;2.33;;;;;;;;;;5180005;27;20109;-69
2022/02/14 07:01:02;;;;;;;2.58;2.10;;;;;;;;;;5180064;27;20082;-68
2022/02/14 07:03:28;;;;;;;3.97;2.40;;;;;;;;;;5160840;27;20080;-68
2022/02/14 07:05:55;;;;;;;4.30;2.30;;;;;;;;;;5160827;27;20410;-69
2022/02/14 07:08:21;;;;;;;3.08;2.35;;;;;;;;;;5179990;27;20062;-69
2022/02/14 07:10:47;;;;;;;2.50;2.00;;;;;;;;;;5180005;27;20161;-69
2022/02/14 07:13:13;;;;;;;3.33;2.05;;;;;;;;;;5179964;27;20170;-69
2022/02/14 07:15:39;;;;;;;6.72;3.70;;;;;;;;;;5179804;27;20480;-70
2022/02/14 07:18:13;;;;;;;3.35;2.25;;;;;;;;;;5179998;27;20154;-70
2022/02/14 07:20:40;;;;;;;3.17;2.20;;;;;;;;;;5160553;27;20094;-70
2022/02/14 07:23:06;;;;;;;2.92;2.15;;;;;;;;;;5178234;27;20422;-70
2022/02/14 07:25:32;;;;;;;2.47;1.90;;;;;;;;;;5160953;27;20078;-70
2022/02/14 07:27:58;;;;;;;2.53;1.92;;;;;;;;;;5143667;27;20302;-71
2022/02/14 07:30:25;;;;;;;2.50;1.83;;;;;;;;;;5160904;27;20082;-71
2022/02/14 07:32:51;;;;;;;3.55;1.87;;;;;;;;;;5180097;27;20059;-69
2022/02/14 07:35:18;;;;;;;2.22;1.77;;;;;;;;;;5160428;27;20145;-70
2022/02/14 07:37:44;;;;;;;3.37;2.08;;;;;;;;;;5179983;27;20474;-71
2022/02/14 07:40:11;;;;;;;4.50;2.00;;;;;;;;;;5161017;27;20181;-72
2022/02/14 07:42:37;;;;;;;4.45;2.08;;;;;;;;;;5179564;27;20072;-71
2022/02/14 07:45:05;;;;;;;3.58;1.83;;;;;;;;;;5160397;27;20074;-72
2022/02/14 07:47:31;;;;;;;3.22;2.40;;;;;;;;;;5160949;27;20082;-71
2022/02/14 07:49:57;;;;;;;3.62;2.17;;;;;;;;;;5160576;27;20161;-72
2022/02/14 07:52:24;;;;;;;2.67;1.90;;;;;;;;;;5179690;27;20125;-72
2022/02/14 07:54:51;;;;;;;2.40;1.92;;;;;;;;;;5179870;27;20136;-72
2022/02/14 07:57:17;;;;;;;1.73;1.62;;;;;;;;;;5179641;27;20164;-71
2022/02/14 07:59:44;;;;;;;2.60;1.67;;;;;;;;;;5160397;27;20094;-72
2022/02/14 08:02:10;;;;;;;3.80;2.00;;;;;;;;;;5179669;27;20096;-72
2022/02/14 08:04:36;;;;;;;1.77;1.60;;;;;;;;;;5179386;27;20097;-71
2022/02/14 08:07:04;;;;;;;1.75;1.60;;;;;;;;;;5160601;27;20082;-71
2022/02/14 08:09:31;;;;;;;4.70;2.05;;;;;;;;;;5160311;27;20187;-70
2022/02/14 08:11:57;;;;;;;3.45;2.22;;;;;;;;;;5179459;27;20409;-70
2022/02/14 08:14:23;;;;;;;3.03;2.00;;;;;;;;;;5143212;27;20420;-69
2022/02/14 08:16:49;;;;;;;3.20;1.90;;;;;;;;;;5179252;27;20172;-70
2022/02/14 08:19:16;;;;;;;2.72;2.12;;;;;;;;;;5179478;27;20090;-70
2022/02/14 08:21:42;;;;;;;2.12;1.90;;;;;;;;;;5160647;27;20385;-70
2022/02/14 08:24:08;;;;;;;2.87;2.10;;;;;;;;;;5142982;27;20081;-69
2022/02/14 08:26:35;;;;;;;3.70;2.12;;;;;;;;;;5179478;27;20096;-71
2022/02/14 08:29:01;;;;;;;2.83;1.90;;;;;;;;;;5160466;27;20086;-70
2022/02/14 08:31:31;;;;;;;2.72;2.10;;;;;;;;;;5160453;27;20170;-69
2022/02/14 08:33:57;;;;;;;3.90;2.10;;;;;;;;;;5179417;27;20206;-70
2022/02/14 08:36:24;;;;;;;3.55;2.28;;;;;;;;;;5143103;27;20522;-69
2022/02/14 08:38:52;;;;;;;3.20;2.42;;;;;;;;;;5180495;27;20062;-69
2022/02/14 08:41:19;;;;;;;3.08;2.10;;;;;;;;;;5179199;27;20189;-68
2022/02/14 08:43:48;;;;;;;2.10;1.80;;;;;;;;;;5179367;27;20163;-69
2022/02/14 08:46:20;;;;;;;2.60;1.70;;;;;;;;;;5160346;27;20178;-69
2022/02/14 08:48:47;;;;;;;4.28;2.08;;;;;;;;;;5179338;27;20084;-68
2022/02/14 08:51:14;;;;;;;2.00;1.80;;;;;;;;;;5179410;27;20082;-68
2022/02/14 08:53:40;;;;;;;2.42;1.80;;;;;;;;;;5160509;27;20108;-68
2022/02/14 08:56:07;;;;;;;2.95;1.95;;;;;;;;;;5160345;27;20069;-67
2022/02/14 08:58:35;;;;;;;2.90;2.00;;;;;;;;;;5142703;27;20607;-66
2022/02/14 09:01:02;;;;;;;2.55;1.70;;;;;;;;;;5179641;27;20078;-67
2022/02/14 09:03:28;;;;;;;3.45;2.03;;;;;;;;;;5179209;27;20078;-66
2022/02/14 09:05:54;;;;;;;2.75;1.90;;;;;;;;;;5179337;27;20084;-65
2022/02/14 09:08:22;;;;;;;2.10;1.60;;;;;;;;;;5179352;27;20112;-68
2022/02/14 09:10:48;;;;;;;2.10;1.73;;;;;;;;;;5142644;27;20090;-67
2022/02/14 09:13:14;;;;;;;3.75;1.75;;;;;;;;;;5177636;27;20083;-64
2022/02/14 09:15:40;;;;;;;2.40;2.00;;;;;;;;;;5179430;27;20185;-64
2022/02/14 09:18:06;;;;;;;1.75;1.65;;;;;;;;;;5177467;27;20092;-66
2022/02/14 09:20:33;;;;;;;2.30;1.77;;;;;;;;;;5178939;27;20133;-66
2022/02/14 09:23:00;;;;;;;4.95;1.85;;;;;;;;;;5179367;27;20493;-66
2022/02/14 09:25:27;;;;;;;4.65;2.00;;;;;;;;;;5179112;27;20058;-66
2022/02/14 09:27:54;;;;;;;2.70;1.80;;;;;;;;;;5160201;27;20493;-63
2022/02/14 09:30:20;;;;;;;1.83;1.70;;;;;;;;;;5179145;27;20484;-66
2022/02/14 09:32:47;;;;;;;2.28;1.80;;;;;;;;;;5143218;27;20080;-66
2022/02/14 09:35:25;;;;;;;2.40;1.95;;;;;;;;;;5179120;27;20086;-66
2022/02/14 09:37:54;;;;;;;1.98;1.60;;;;;;;;;;5144874;27;20509;-66
2022/02/14 09:40:22;;;;;;;2.25;1.42;;;;;;;;;;5160271;27;20089;-64
2022/02/14 09:42:48;;;;;;;2.45;1.80;;;;;;;;;;5179321;27;20073;-66
2022/02/14 09:45:14;;;;;;;2.75;2.05;;;;;;;;;;5179344;27;20077;-66
2022/02/14 09:47:41;;;;;;;5.90;1.90;;;;;;;;;;5179359;27;20078;-65
2022/02/14 09:50:09;;;;;;;2.25;1.60;;;;;;;;;;5160209;27;20414;-66
2022/02/14 09:52:35;;;;;;;3.35;1.70;;;;;;;;;;5179158;27;20093;-66
2022/02/14 09:55:02;;;;;;;2.12;1.70;;;;;;;;;;5179124;27;20093;-66
2022/02/14 09:57:28;;;;;;;2.22;1.70;;;;;;;;;;5179183;27;20077;-65
2022/02/14 09:59:54;;;;;;;2.90;1.40;;;;;;;;;;5180142;27;20405;-65
2022/02/14 10:02:24;;;;;;;3.25;1.95;;;;;;;;;;5180299;27;20497;-65
2022/02/14 10:05:13;;;;;;;1.67;1.50;;;;;;;;;;5180031;27;20082;-66
2022/02/14 10:07:41;;;;;;;2.90;1.62;;;;;;;;;;5180319;27;20066;-64
2022/02/14 10:10:09;;;;;;;1.75;1.50;;;;;;;;;;5161240;27;20062;-65
2022/02/14 10:12:41;;;;;;;1.50;1.40;;;;;;;;;;5161122;27;20180;-65
2022/02/14 10:15:07;;;;;;;4.53;1.77;;;;;;;;;;5180218;27;20239;-66
2022/02/14 10:17:38;;;;;;;2.03;1.70;;;;;;;;;;5161110;27;20070;-65
2022/02/14 10:20:05;;;;;;;3.75;1.85;;;;;;;;;;5160911;27;20073;-65
2022/02/14 10:22:31;;;;;;;3.47;2.10;;;;;;;;;;5143830;27;20098;-63
2022/02/14 10:24:57;;;;;;;3.03;2.00;;;;;;;;;;5179796;27;20452;-67
2022/02/14 10:27:34;;;;;;;3.20;2.12;;;;;;;;;;5180099;27;20089;-65
2022/02/14 10:30:11;;;;;;;4.43;2.25;;;;;;;;;;5161283;27;20175;-65
2022/02/14 10:32:52;;;;;;;3.87;2.28;;;;;;;;;;5144048;27;20097;-64
2022/02/14 10:35:18;;;;;;;4.57;2.00;;;;;;;;;;5180084;27;20149;-63
2022/02/14 10:37:45;;;;;;;3.03;2.17;;;;;;;;;;5180327;27;20075;-64
2022/02/14 10:40:28;;;;;;;2.70;1.95;;;;;;;;;;5180193;27;20058;-62
2022/02/14 10:42:54;;;;;;;3.58;2.20;;;;;;;;;;5160814;27;20159;-65
2022/02/14 10:45:22;;;;;;;3.55;2.28;;;;;;;;;;5179738;27;20089;-64
2022/02/14 10:47:50;;;;;;;3.15;2.03;;;;;;;;;;5179952;27;20078;-65
2022/02/14 10:50:26;;;;;;;4.28;2.75;;;;;;;;;;5158913;27;20113;-64
2022/02/14 10:52:55;;;;;;;3.08;2.15;;;;;;;;;;5175387;27;20176;-64
2022/02/14 10:55:28;;;;;;;4.35;3.08;;;;;;;;;;5175264;27;20493;-65
2022/02/14 10:57:56;;;;;;;3.33;2.45;;;;;;;;;;5155582;27;20193;-64
2022/02/14 11:00:24;;;;;;;2.87;2.20;;;;;;;;;;5159632;27;20070;-65
2022/02/14 11:02:52;;;;;;;3.80;2.22;;;;;;;;;;5175595;27;20105;-66
2022/02/14 11:05:20;;;;;;;4.12;2.78;;;;;;;;;;5176180;27;20097;-64
2022/02/14 11:07:47;;;;;;;4.03;2.50;;;;;;;;;;5176199;27;20089;-65
2022/02/14 11:10:17;;;;;;;5.40;3.40;;;;;;;;;;5157056;27;20092;-64
2022/02/14 11:12:57;;;;;;;4.55;2.85;;;;;;;;;;5157618;27;20203;-64
2022/02/14 11:15:31;;;;;;;6.90;3.05;;;;;;;;;;5175952;27;20089;-64
2022/02/14 11:18:01;;;;;;;4.87;2.62;;;;;;;;;;5176375;27;20104;-63
2022/02/14 11:20:28;;;;;;;5.40;3.00;;;;;;;;;;5157018;27;20098;-64
2022/02/14 11:22:57;;;;;;;5.72;2.65;;;;;;;;;;5176396;27;20085;-64
2022/02/14 11:25:43;;;;;;;5.37;2.97;;;;;;;;;;5175907;27;20082;-64
2022/02/14 11:28:31;;;;;;;4.75;2.90;;;;;;;;;;5157141;27;20090;-64
2022/02/14 11:31:14;;;;;;;5.87;3.22;;;;;;;;;;5175326;27;20505;-62
2022/02/14 11:33:55;;;;;;;5.32;2.83;;;;;;;;;;5157100;27;20098;-61
2022/02/14 11:36:22;;;;;;;4.62;2.97;;;;;;;;;;5175464;27;20517;-63
2022/02/14 11:38:52;;;;;;;3.83;2.90;;;;;;;;;;5173094;27;20086;-63
2022/02/14 11:41:27;;;;;;;5.37;3.22;;;;;;;;;;5157213;27;20051;-63
2022/02/14 11:44:15;;;;;;;5.43;3.25;;;;;;;;;;5156955;27;20093;-63
2022/02/14 11:46:48;;;;;;;3.92;3.20;;;;;;;;;;5175575;27;20156;-63
2022/02/14 11:49:17;;;;;;;5.45;4.00;;;;;;;;;;5179420;27;20078;-64
2022/02/14 11:51:55;;;;;;;5.37;3.83;;;;;;;;;;5177234;27;20181;-63
2022/02/14 11:54:45;;;;;;;5.00;3.28;;;;;;;;;;5159610;27;20078;-63
2022/02/14 11:57:23;;;;;;;5.72;3.67;;;;;;;;;;5179240;27;20422;-64
2022/02/14 11:59:50;;;;;;;5.85;3.83;;;;;;;;;;5179135;27;20402;-63
2022/02/14 12:02:27;;;;;;;7.03;3.47;;;;;;;;;;5178701;27;20085;-63
2022/02/14 12:04:55;;;;;;;6.05;3.92;;;;;;;;;;5159409;27;20161;-63
2022/02/14 12:07:26;;;;;;;8.02;3.90;;;;;;;;;;5179090;27;20159;-63
2022/02/14 12:09:59;;;;;;;7.03;3.90;;;;;;;;;;5176859;27;20057;-63
2022/02/14 12:12:44;;;;;;;5.65;3.75;;;;;;;;;;5179010;27;20066;-63
2022/02/14 12:20:38;;;;;;;5.35;3.62;;;;;;;;;;5178202;27;20196;-64
2022/02/14 12:23:06;;;;;;;5.78;3.60;;;;;;;;;;5177293;27;20472;-64
2022/02/14 12:25:32;;;;;;;8.48;4.40;;;;;;;;;;5176804;27;20121;-64
2022/02/14 12:27:59;;;;;;;5.37;3.65;;;;;;;;;;5177392;27;20102;-64
2022/02/14 12:30:28;;;;;;;3.92;3.28;;;;;;;;;;5157610;27;20490;-64
2022/02/14 12:33:00;;;;;;;4.68;3.40;;;;;;;;;;5178418;27;20482;-63
2022/02/14 12:35:46;;;;;;;5.87;3.65;;;;;;;;;;5178376;27;20074;-64
2022/02/14 12:38:13;;;;;;;4.28;3.35;;;;;;;;;;5178770;27;20065;-63
2022/02/14 12:40:50;;;;;;;4.20;3.70;;;;;;;;;;5178463;27;20101;-64
2022/02/14 12:43:28;;;;;;;6.72;4.28;;;;;;;;;;5179151;27;20165;-65
2022/02/14 12:45:58;;;;;;;5.18;3.20;;;;;;;;;;5159613;27;20081;-64
2022/02/14 12:48:48;;;;;;;5.75;3.50;;;;;;;;;;5160039;27;20101;-64
2022/02/14 12:51:23;;;;;;;4.00;2.83;;;;;;;;;;5178595;27;20058;-63
2022/02/14 12:53:54;;;;;;;5.93;3.60;;;;;;;;;;5178495;27;20086;-63
2022/02/14 12:56:25;;;;;;;5.57;3.53;;;;;;;;;;5178950;27;20073;-64
2022/02/14 12:58:53;;;;;;;5.35;4.18;;;;;;;;;;5159688;27;20164;-64
2022/02/14 13:01:20;;;;;;;5.15;3.95;;;;;;;;;;5143116;27;20098;-63
2022/02/14 13:03:58;;;;;;;6.22;3.62;;;;;;;;;;5159960;27;20088;-68
2022/02/14 13:06:49;;;;;;;7.20;4.37;;;;;;;;;;5158646;27;20090;-66
2022/02/14 13:09:35;;;;;;;5.30;4.18;;;;;;;;;;5159517;27;20118;-67
2022/02/14 13:12:15;;;;;;;5.00;3.72;;;;;;;;;;5178937;27;20078;-67
2022/02/14 13:14:43;;;;;;;4.78;4.10;;;;;;;;;;5159812;27;20066;-66
2022/02/14 13:17:10;;;;;;;5.80;4.00;;;;;;;;;;5178794;27;20057;-67
2022/02/14 13:19:36;;;;;;;4.40;3.50;;;;;;;;;;5177999;27;20516;-66
2022/02/14 13:22:04;;;;;;;6.35;3.75;;;;;;;;;;5125048;27;20101;-68
2022/02/14 13:24:34;;;;;;;5.95;3.55;;;;;;;;;;5159241;27;20073;-67
2022/02/14 13:27:09;;;;;;;5.82;3.70;;;;;;;;;;5125695;27;20082;-68
2022/02/14 13:29:44;;;;;;;5.45;3.45;;;;;;;;;;5178332;27;20175;-66
2022/02/14 13:32:14;;;;;;;4.75;3.47;;;;;;;;;;5179108;27;20183;-66
2022/02/14 13:35:12;;;;;;;5.93;3.70;;;;;;;;;;5160590;27;20101;-67
2022/02/14 13:37:43;;;;;;;6.15;3.95;;;;;;;;;;5143825;27;20094;-65
2022/02/14 13:40:22;;;;;;;9.07;4.50;;;;;;;;;;5160067;27;20757;-66
2022/02/14 13:42:55;;;;;;;7.68;4.35;;;;;;;;;;5179995;27;20086;-67
2022/02/14 13:45:21;;;;;;;5.47;3.97;;;;;;;;;;5143434;27;20085;-65
2022/02/14 13:47:48;;;;;;;6.50;4.72;;;;;;;;;;5180448;27;20074;-65
2022/02/14 13:50:29;;;;;;;5.85;4.12;;;;;;;;;;5179732;27;20068;-66
2022/02/14 13:52:55;;;;;;;4.85;3.85;;;;;;;;;;5160644;27;20171;-65
2022/02/14 13:55:26;;;;;;;5.55;4.37;;;;;;;;;;5143077;27;20066;-64
2022/02/14 13:57:52;;;;;;;5.10;3.90;;;;;;;;;;5161262;27;20086;-66
2022/02/14 14:00:36;;;;;;;6.75;4.18;;;;;;;;;;5143414;27;20082;-65
2022/02/14 14:03:10;;;;;;;6.22;4.10;;;;;;;;;;5180157;27;20826;-66
2022/02/14 14:05:40;;;;;;;5.18;4.00;;;;;;;;;;5179779;27;20085;-66
2022/02/14 14:08:08;;;;;;;7.32;4.35;;;;;;;;;;5160580;27;20179;-66
2022/02/14 14:10:42;;;;;;;5.47;4.05;;;;;;;;;;5160805;27;20097;-65
2022/02/14 14:13:12;;;;;;;6.57;4.85;;;;;;;;;;5179758;27;20084;-65
2022/02/14 14:15:39;;;;;;;6.15;4.45;;;;;;;;;;5180021;27;20094;-64
2022/02/14 14:18:05;;;;;;;6.85;5.22;;;;;;;;;;5160708;27;20670;-64
2022/02/14 14:20:31;;;;;;;6.65;4.57;;;;;;;;;;5160386;27;20070;-66
2022/02/14 14:22:57;;;;;;;5.93;4.80;;;;;;;;;;5126044;27;20164;-65
2022/02/14 14:25:24;;;;;;;7.85;4.47;;;;;;;;;;5160152;27;20154;-65
2022/02/14 14:27:51;;;;;;;6.00;4.78;;;;;;;;;;5160966;27;20604;-65
2022/02/14 14:30:21;;;;;;;8.25;5.35;;;;;;;;;;5160672;27;20173;-64
2022/02/14 14:32:47;;;;;;;7.03;5.00;;;;;;;;;;5179856;27;20069;-65
2022/02/14 14:35:15;;;;;;;8.07;5.80;;;;;;;;;;5160477;27;20498;-65
2022/02/14 14:37:42;;;;;;;8.05;6.30;;;;;;;;;;5179739;27;20457;-67
2022/02/14 14:40:09;;;;;;;10.52;6.10;;;;;;;;;;5179463;27;20066;-65
2022/02/14 14:42:35;;;;;;;8.20;6.10;;;;;;;;;;5160569;27;20112;-66
2022/02/14 14:45:01;;;;;;;7.97;6.10;;;;;;;;;;5178693;27;20102;-65
2022/02/14 14:47:28;;;;;;;11.93;7.30;;;;;;;;;;5160619;27;20090;-65
2022/02/14 14:49:54;;;;;;;10.73;6.75;;;;;;;;;;5160387;27;20100;-66
2022/02/14 14:52:21;;;;;;;10.32;6.95;;;;;;;;;;5159801;27;20073;-66
2022/02/14 14:54:47;;;;;;;11.10;7.47;;;;;;;;;;5156974;27;20149;-66
2022/02/14 14:57:17;;;;;;;10.73;7.30;;;;;;;;;;5179395;27;20089;-67
2022/02/14 14:59:43;;;;;;;12.35;8.35;;;;;;;;;;5142863;27;20312;-68
2022/02/14 15:02:09;;;;;;;13.13;7.97;;;;;;;;;;5179501;27;20105;-65
2022/02/14 15:04:35;;;;;;;10.43;7.25;;;;;;;;;;5179178;27;20066;-68
2022/02/14 15:07:01;;;;;;;12.37;7.60;;;;;;;;;;5179470;27;20097;-67
2022/02/14 15:09:28;;;;;;;11.65;6.82;;;;;;;;;;5179041;27;20077;-67
2022/02/14 15:11:56;;;;;;;13.23;7.47;;;;;;;;;;5179336;27;20088;-64
2022/02/14 15:14:23;;;;;;;12.63;7.40;;;;;;;;;;5160350;27;20504;-65